createdAt,value
2023-01-19T00:00:53.287Z,2.97
2023-01-19T00:03:20.511Z,2.93
2023-01-19T00:05:47.136Z,2.91
2023-01-19T00:08:17.573Z,2.91
2023-01-19T00:10:47.569Z,2.93
2023-01-19T00:13:15.176Z,2.93
2023-01-19T00:15:41.774Z,2.99
2023-01-19T00:18:10.622Z,3.04
2023-01-19T00:20:38.853Z,3.04
2023-01-19T00:23:07.571Z,3.04
2023-01-19T00:25:34.363Z,3.03
2023-01-19T00:28:02.008Z,2.98
2023-01-19T00:30:29.304Z,2.96
2023-01-19T00:32:56.114Z,2.96
2023-01-19T00:35:22.938Z,2.93
2023-01-19T00:37:51.499Z,2.89
2023-01-19T00:40:18.580Z,2.91
2023-01-19T00:42:45.603Z,2.82
2023-01-19T00:45:15.097Z,2.78
2023-01-19T00:47:42.470Z,2.75
2023-01-19T00:50:11.820Z,2.69
2023-01-19T00:52:40.175Z,2.71
2023-01-19T00:55:09.245Z,2.75
2023-01-19T00:57:36.189Z,2.83
2023-01-19T01:00:07.417Z,2.89
2023-01-19T01:02:34.507Z,2.93
2023-01-19T01:05:02.911Z,2.98
2023-01-19T01:07:30.628Z,3.00
2023-01-19T01:09:57.409Z,3.04
2023-01-19T01:12:24.700Z,3.09
2023-01-19T01:14:51.197Z,3.11
2023-01-19T01:17:17.893Z,3.14
2023-01-19T01:19:44.397Z,3.10
2023-01-19T01:22:11.015Z,3.12
2023-01-19T01:24:38.194Z,3.13
2023-01-19T01:27:05.626Z,3.16
2023-01-19T01:29:35.311Z,3.17
2023-01-19T01:32:02.257Z,3.11
2023-01-19T01:34:28.869Z,3.10
2023-01-19T01:36:55.533Z,3.00
2023-01-19T01:39:22.317Z,2.94
2023-01-19T01:41:49.503Z,2.78
2023-01-19T01:44:50.207Z,2.61
2023-01-19T01:47:38.742Z,2.59
2023-01-19T01:50:14.890Z,2.42
2023-01-19T01:53:08.404Z,2.43
2023-01-19T01:55:40.646Z,2.42
2023-01-19T01:58:09.937Z,2.43
2023-01-19T02:00:57.620Z,2.41
2023-01-19T02:03:25.830Z,2.45
2023-01-19T02:05:57.682Z,2.36
2023-01-19T02:08:57.804Z,2.36
2023-01-19T02:11:44.519Z,2.35
2023-01-19T02:14:11.397Z,2.36
2023-01-19T02:16:38.508Z,2.44
2023-01-19T02:19:08.826Z,2.38
2023-01-19T02:21:54.457Z,2.40
2023-01-19T02:24:21.657Z,2.36
2023-01-19T02:26:49.179Z,2.33
2023-01-19T02:29:22.885Z,2.27
2023-01-19T02:31:52.729Z,2.15
2023-01-19T02:34:21.401Z,2.06
2023-01-19T02:37:06.766Z,1.92
2023-01-19T02:40:05.237Z,1.78
2023-01-19T02:42:43.683Z,1.77
2023-01-19T02:45:14.565Z,1.71
2023-01-19T02:47:47.307Z,1.65
2023-01-19T02:50:37.056Z,1.67
2023-01-19T02:53:41.954Z,1.69
2023-01-19T02:56:41.372Z,1.69
2023-01-19T02:59:44.926Z,1.70
2023-01-19T03:02:29.592Z,1.64
2023-01-19T03:05:24.079Z,1.61
2023-01-19T03:08:16.212Z,1.57
2023-01-19T03:11:01.723Z,1.51
2023-01-19T03:13:50.161Z,1.52
2023-01-19T03:16:23.010Z,1.50
2023-01-19T03:18:55.419Z,1.49
2023-01-19T03:21:28.265Z,1.47
2023-01-19T03:24:02.136Z,1.49
2023-01-19T03:26:30.251Z,1.48
2023-01-19T03:29:01.662Z,1.42
2023-01-19T03:31:31.699Z,1.44
2023-01-19T03:34:03.376Z,1.42
2023-01-19T03:36:35.087Z,1.40
2023-01-19T03:39:04.044Z,1.41
2023-01-19T03:41:34.389Z,1.45
2023-01-19T03:44:02.600Z,1.45
2023-01-19T03:46:31.208Z,1.44
2023-01-19T03:49:00.021Z,1.43
2023-01-19T03:51:27.271Z,1.46
2023-01-19T03:53:54.001Z,1.38
2023-01-19T03:56:25.551Z,1.41
2023-01-19T03:58:52.676Z,1.40
2023-01-19T04:01:23.384Z,1.36
2023-01-19T04:03:50.923Z,1.38
2023-01-19T04:06:19.163Z,1.34
2023-01-19T04:08:49.231Z,1.35
2023-01-19T04:11:16.173Z,1.39
2023-01-19T04:13:43.513Z,1.44
2023-01-19T04:16:11.106Z,1.44
2023-01-19T04:18:38.037Z,1.54
2023-01-19T04:21:07.410Z,1.52
2023-01-19T04:23:34.288Z,1.53
2023-01-19T04:26:03.902Z,1.50
2023-01-19T04:28:31.630Z,1.52
2023-01-19T04:30:58.537Z,1.42
2023-01-19T04:33:26.640Z,1.51
2023-01-19T04:35:54.585Z,1.46
2023-01-19T04:38:22.909Z,1.44
2023-01-19T04:40:53.264Z,1.50
2023-01-19T04:43:24.037Z,1.43
2023-01-19T04:45:51.243Z,1.44
2023-01-19T04:48:19.088Z,1.38
2023-01-19T04:50:46.454Z,1.46
2023-01-19T04:53:13.943Z,1.44
2023-01-19T04:55:41.073Z,1.45
2023-01-19T04:58:08.028Z,1.50
2023-01-19T05:00:35.056Z,1.53
2023-01-19T05:03:02.289Z,1.52
2023-01-19T05:05:29.867Z,1.59
2023-01-19T05:07:56.548Z,1.63
2023-01-19T05:10:23.981Z,1.66
2023-01-19T05:12:51.333Z,1.64
2023-01-19T05:15:19.110Z,1.66
2023-01-19T05:17:45.802Z,1.63
2023-01-19T05:20:16.025Z,1.61
2023-01-19T05:22:50.806Z,1.55
2023-01-19T05:25:18.140Z,1.54
2023-01-19T05:27:46.680Z,1.58
2023-01-19T05:30:14.232Z,1.56
2023-01-19T05:32:41.139Z,1.60
2023-01-19T05:35:08.857Z,1.61
2023-01-19T05:37:35.526Z,1.69
2023-01-19T05:40:02.205Z,1.73
2023-01-19T05:42:29.555Z,1.74
2023-01-19T05:44:59.462Z,1.77
2023-01-19T05:47:29.375Z,1.78
2023-01-19T05:49:56.046Z,1.78
2023-01-19T05:52:22.837Z,1.87
2023-01-19T05:54:51.877Z,1.94
2023-01-19T05:57:19.941Z,1.96
2023-01-19T05:59:46.971Z,1.99
2023-01-19T06:02:13.850Z,1.95
2023-01-19T06:04:41.836Z,1.95
2023-01-19T06:07:08.409Z,1.96
2023-01-19T06:09:35.066Z,1.93
2023-01-19T06:12:01.715Z,1.96
2023-01-19T06:14:28.427Z,1.97
2023-01-19T06:16:55.035Z,2.01
2023-01-19T06:19:21.887Z,2.01
2023-01-19T06:21:52.436Z,2.00
2023-01-19T06:24:20.041Z,1.99
2023-01-19T06:26:47.034Z,1.98
2023-01-19T06:29:14.514Z,1.99
2023-01-19T06:31:42.122Z,1.98
2023-01-19T06:34:09.488Z,1.94
2023-01-19T06:36:36.596Z,1.93
2023-01-19T06:39:05.858Z,1.95
2023-01-19T06:41:33.946Z,1.96
2023-01-19T06:44:01.240Z,1.95
2023-01-19T06:46:28.231Z,1.83
2023-01-19T06:48:56.592Z,1.74
2023-01-19T06:51:23.986Z,1.68
2023-01-19T06:53:50.946Z,1.60
2023-01-19T06:56:19.623Z,1.60
2023-01-19T06:58:48.920Z,1.58
2023-01-19T07:01:15.778Z,1.58
2023-01-19T07:03:42.624Z,1.61
2023-01-19T07:06:09.568Z,1.63
2023-01-19T07:08:37.254Z,1.71
2023-01-19T07:11:26.732Z,1.65
2023-01-19T07:13:55.423Z,1.60
2023-01-19T07:16:22.110Z,1.65
2023-01-19T07:18:50.300Z,1.62
2023-01-19T07:21:19.474Z,1.67
2023-01-19T07:23:51.574Z,1.78
2023-01-19T07:26:21.183Z,1.80
2023-01-19T07:28:48.973Z,1.89
2023-01-19T07:31:17.185Z,1.94
2023-01-19T07:33:45.062Z,1.89
2023-01-19T07:36:12.540Z,1.82
2023-01-19T07:38:39.534Z,1.85
2023-01-19T07:41:09.462Z,1.86
2023-01-19T07:43:36.407Z,1.75
2023-01-19T07:46:05.804Z,1.72
2023-01-19T07:48:32.560Z,1.71
2023-01-19T07:51:01.495Z,1.66
2023-01-19T07:53:29.819Z,1.67
2023-01-19T07:55:57.464Z,1.65
2023-01-19T07:58:24.701Z,1.67
2023-01-19T08:00:51.573Z,1.74
2023-01-19T08:03:18.754Z,1.80
2023-01-19T08:05:45.519Z,1.78
2023-01-19T08:08:12.725Z,1.71
2023-01-19T08:10:39.670Z,1.73
2023-01-19T08:13:06.451Z,1.74
2023-01-19T08:15:33.244Z,1.73
2023-01-19T08:18:02.133Z,1.71
2023-01-19T08:20:30.091Z,1.78
2023-01-19T08:23:00.277Z,1.77
2023-01-19T08:25:33.261Z,1.78
2023-01-19T08:28:00.339Z,1.76
2023-01-19T08:30:27.127Z,1.79
2023-01-19T08:32:54.587Z,1.79
2023-01-19T08:35:22.555Z,1.81
2023-01-19T08:37:51.042Z,1.90
2023-01-19T08:40:18.503Z,1.94
2023-01-19T08:42:45.626Z,1.93
2023-01-19T08:45:12.339Z,1.98
2023-01-19T08:47:39.058Z,2.04
2023-01-19T08:50:06.303Z,2.06
2023-01-19T08:52:34.054Z,1.90
2023-01-19T08:55:00.739Z,1.86
2023-01-19T08:57:28.087Z,1.80
2023-01-19T08:59:54.630Z,1.80
2023-01-19T09:02:21.277Z,1.83
2023-01-19T09:04:50.316Z,1.90
2023-01-19T09:07:19.215Z,1.94
2023-01-19T09:09:46.189Z,1.91
2023-01-19T09:12:12.941Z,1.94
2023-01-19T09:14:39.489Z,1.95
2023-01-19T09:17:06.514Z,1.94
2023-01-19T09:19:35.028Z,1.90
2023-01-19T09:22:01.785Z,1.96
2023-01-19T09:24:28.735Z,1.98
2023-01-19T09:26:55.668Z,1.99
2023-01-19T09:29:22.807Z,2.04
2023-01-19T09:31:49.730Z,2.06
2023-01-19T09:34:16.407Z,2.04
2023-01-19T09:36:43.032Z,2.07
2023-01-19T09:39:11.011Z,2.07
2023-01-19T09:41:42.069Z,2.12
2023-01-19T09:44:17.031Z,2.16
2023-01-19T09:46:43.815Z,2.21
2023-01-19T09:49:26.765Z,2.20
2023-01-19T09:51:53.604Z,2.22
2023-01-19T09:54:35.761Z,2.24
2023-01-19T09:57:02.821Z,2.24
2023-01-19T09:59:31.119Z,2.28
2023-01-19T10:02:03.807Z,2.33
2023-01-19T10:04:40.149Z,2.31
2023-01-19T10:07:28.084Z,2.30
2023-01-19T10:10:12.624Z,2.37
2023-01-19T10:12:44.569Z,2.40
2023-01-19T10:15:24.560Z,2.42
2023-01-19T10:18:08.687Z,2.45
2023-01-19T10:20:37.660Z,2.48
2023-01-19T10:23:14.602Z,2.49
2023-01-19T10:25:41.554Z,2.56
2023-01-19T10:28:08.887Z,2.58
2023-01-19T10:30:35.589Z,2.58
2023-01-19T10:33:02.678Z,2.57
2023-01-19T10:35:30.176Z,2.64
2023-01-19T10:38:01.700Z,2.67
2023-01-19T10:40:51.924Z,2.76
2023-01-19T10:43:52.747Z,2.75
2023-01-19T10:46:34.216Z,2.78
2023-01-19T10:49:01.785Z,2.83
2023-01-19T10:51:28.665Z,2.82
2023-01-19T10:53:57.267Z,2.89
2023-01-19T10:56:33.479Z,2.95
2023-01-19T10:59:02.525Z,2.95
2023-01-19T11:01:31.150Z,2.95
2023-01-19T11:04:05.638Z,2.98
2023-01-19T11:06:34.259Z,3.05
2023-01-19T11:09:21.380Z,3.05
2023-01-19T11:11:51.504Z,3.09
2023-01-19T11:14:21.932Z,3.12
2023-01-19T11:16:57.087Z,3.14
2023-01-19T11:19:31.077Z,3.19
2023-01-19T11:22:24.841Z,3.22
2023-01-19T11:24:52.265Z,3.21
2023-01-19T11:27:22.403Z,3.28
2023-01-19T11:29:57.343Z,3.29
2023-01-19T11:32:28.177Z,3.38
2023-01-19T11:34:54.864Z,3.38
2023-01-19T11:37:21.475Z,3.40
2023-01-19T11:40:08.497Z,3.46
2023-01-19T11:42:37.278Z,3.44
2023-01-19T11:45:12.363Z,3.49
2023-01-19T11:47:50.049Z,3.58
2023-01-19T11:50:36.449Z,3.66
2023-01-19T11:53:17.538Z,3.70
2023-01-19T11:55:51.342Z,3.76
2023-01-19T11:58:19.982Z,3.80
2023-01-19T12:00:54.202Z,3.86
2023-01-19T12:03:33.008Z,3.86
2023-01-19T12:06:37.221Z,3.90
2023-01-19T12:09:06.911Z,3.88
2023-01-19T12:11:44.229Z,3.90
2023-01-19T12:14:20.344Z,3.90
2023-01-19T12:16:49.277Z,3.90
2023-01-19T12:19:22.332Z,3.95
2023-01-19T12:21:50.222Z,4.00
2023-01-19T12:24:26.489Z,4.02
2023-01-19T12:26:57.410Z,4.02
2023-01-19T12:29:27.972Z,3.99
2023-01-19T12:32:34.418Z,4.03
2023-01-19T12:35:02.492Z,4.19
2023-01-19T12:37:40.286Z,4.18
2023-01-19T12:40:22.149Z,4.19
2023-01-19T12:43:05.895Z,4.22
2023-01-19T12:45:34.917Z,4.20
2023-01-19T12:48:04.295Z,4.15
2023-01-19T12:50:37.766Z,4.15
2023-01-19T12:53:21.195Z,4.19
2023-01-19T12:55:59.828Z,4.20
2023-01-19T12:58:27.348Z,4.26
2023-01-19T13:01:21.891Z,4.28
2023-01-19T13:04:09.654Z,4.33
2023-01-19T13:06:48.301Z,4.39
2023-01-19T13:09:37.025Z,4.57
2023-01-19T13:12:25.625Z,4.77
2023-01-19T13:15:28.841Z,4.88
2023-01-19T13:17:56.749Z,4.69
2023-01-19T13:20:27.486Z,4.52
2023-01-19T13:23:19.188Z,4.47
2023-01-19T13:25:58.824Z,4.41
2023-01-19T13:28:36.249Z,4.38
2023-01-19T13:31:03.861Z,4.41
2023-01-19T13:33:40.848Z,4.33
2023-01-19T13:36:19.950Z,4.19
2023-01-19T13:38:51.234Z,4.17
2023-01-19T13:41:21.976Z,4.26
2023-01-19T13:43:59.914Z,4.29
2023-01-19T13:46:28.457Z,4.36
2023-01-19T13:49:04.440Z,4.36
2023-01-19T13:51:32.031Z,4.31
2023-01-19T13:54:01.716Z,4.33
2023-01-19T13:56:30.256Z,4.42
2023-01-19T13:59:02.280Z,4.37
2023-01-19T14:01:30.930Z,4.37
2023-01-19T14:03:57.865Z,4.42
2023-01-19T14:06:38.655Z,4.42
2023-01-19T14:09:22.434Z,4.41
2023-01-19T14:12:11.106Z,4.41
2023-01-19T14:14:38.211Z,4.43
2023-01-19T14:17:29.868Z,4.49
2023-01-19T14:19:58.468Z,4.52
2023-01-19T14:22:45.563Z,4.59
2023-01-19T14:25:36.971Z,4.56
2023-01-19T14:28:43.597Z,4.59
2023-01-19T14:31:27.581Z,4.67
2023-01-19T14:33:58.454Z,4.72
2023-01-19T14:36:28.800Z,4.76
2023-01-19T14:38:59.603Z,4.73
2023-01-19T14:41:43.774Z,4.80
2023-01-19T14:44:16.593Z,4.86
2023-01-19T14:46:48.536Z,4.78
2023-01-19T14:49:24.010Z,4.64
2023-01-19T14:51:51.197Z,4.53
2023-01-19T14:54:29.477Z,4.48
2023-01-19T14:56:56.245Z,4.60
2023-01-19T14:59:22.857Z,4.48
2023-01-19T15:01:52.249Z,4.43
2023-01-19T15:04:19.137Z,4.29
2023-01-19T15:06:47.216Z,4.25
2023-01-19T15:09:15.418Z,4.21
2023-01-19T15:11:43.515Z,4.15
2023-01-19T15:14:14.589Z,4.13
2023-01-19T15:16:42.780Z,4.07
2023-01-19T15:19:12.554Z,4.06
2023-01-19T15:21:42.185Z,4.00
2023-01-19T15:24:10.603Z,3.86
2023-01-19T15:26:40.500Z,3.79
2023-01-19T15:29:20.218Z,3.73
2023-01-19T15:31:47.223Z,3.72
2023-01-19T15:34:14.677Z,3.61
2023-01-19T15:36:42.559Z,3.43
2023-01-19T15:39:13.524Z,3.21
2023-01-19T15:41:40.513Z,3.09
2023-01-19T15:44:08.545Z,2.95
2023-01-19T15:46:35.181Z,2.88
2023-01-19T15:49:01.826Z,2.76
2023-01-19T15:51:28.669Z,2.73
2023-01-19T15:53:55.564Z,2.69
2023-01-19T15:56:28.208Z,2.69
2023-01-19T15:58:55.813Z,2.69
2023-01-19T16:01:31.325Z,2.60
2023-01-19T16:04:01.009Z,2.57
2023-01-19T16:06:28.785Z,2.57
2023-01-19T16:08:59.755Z,2.56
2023-01-19T16:11:31.004Z,2.49
2023-01-19T16:13:58.241Z,2.43
2023-01-19T16:16:27.891Z,2.42
2023-01-19T16:18:55.335Z,2.44
2023-01-19T16:21:22.314Z,2.40
2023-01-19T16:23:49.269Z,2.39
2023-01-19T16:26:34.382Z,2.39
2023-01-19T16:29:09.029Z,2.38
2023-01-19T16:31:40.949Z,2.36
2023-01-19T16:34:10.235Z,2.28
2023-01-19T16:36:40.300Z,2.23
2023-01-19T16:39:10.565Z,2.18
2023-01-19T16:41:37.729Z,2.13
2023-01-19T16:44:05.637Z,2.00
2023-01-19T16:46:35.616Z,1.94
2023-01-19T16:49:10.306Z,1.91
2023-01-19T16:51:37.679Z,1.75
2023-01-19T16:54:04.635Z,1.68
2023-01-19T16:56:31.831Z,1.62
2023-01-19T16:58:59.565Z,1.66
2023-01-19T17:01:28.744Z,1.65
2023-01-19T17:03:56.504Z,1.63
2023-01-19T17:06:24.536Z,1.65
2023-01-19T17:08:53.070Z,1.58
2023-01-19T17:11:28.377Z,1.57
2023-01-19T17:13:57.711Z,1.50
2023-01-19T17:16:25.247Z,1.52
2023-01-19T17:18:52.487Z,1.47
2023-01-19T17:21:20.278Z,1.42
2023-01-19T17:23:52.242Z,1.39
2023-01-19T17:26:20.194Z,1.33
2023-01-19T17:28:47.074Z,1.35
2023-01-19T17:31:20.415Z,1.32
2023-01-19T17:33:50.861Z,1.24
2023-01-19T17:36:22.256Z,1.22
2023-01-19T17:38:50.357Z,1.20
2023-01-19T17:41:22.600Z,1.26
2023-01-19T17:43:51.277Z,1.28
2023-01-19T17:46:20.318Z,1.28
2023-01-19T17:49:01.992Z,1.26
2023-01-19T17:51:31.883Z,1.24
2023-01-19T17:53:59.477Z,1.21
2023-01-19T17:56:29.886Z,1.23
2023-01-19T17:58:58.095Z,1.21
2023-01-19T18:01:27.934Z,1.15
2023-01-19T18:03:55.032Z,1.11
2023-01-19T18:06:22.630Z,1.12
2023-01-19T18:08:50.465Z,1.20
2023-01-19T18:11:21.164Z,1.11
2023-01-19T18:13:50.639Z,1.04
2023-01-19T18:16:23.011Z,1.01
2023-01-19T18:18:53.537Z,1.02
2023-01-19T18:21:22.248Z,0.96
2023-01-19T18:23:50.364Z,1.04
2023-01-19T18:26:20.539Z,1.12
2023-01-19T18:28:50.885Z,1.15
2023-01-19T18:31:20.008Z,1.17
2023-01-19T18:33:49.206Z,1.11
2023-01-19T18:36:16.657Z,1.05
2023-01-19T18:38:43.471Z,1.06
2023-01-19T18:41:15.744Z,1.11
2023-01-19T18:43:43.339Z,1.12
2023-01-19T18:46:10.644Z,1.13
2023-01-19T18:48:40.583Z,1.12
2023-01-19T18:51:12.730Z,1.06
2023-01-19T18:53:40.127Z,0.99
2023-01-19T18:56:07.552Z,0.96
2023-01-19T18:58:37.451Z,1.02
2023-01-19T19:01:05.754Z,1.03
2023-01-19T19:03:32.628Z,1.03
2023-01-19T19:06:03.508Z,1.04
2023-01-19T19:08:30.657Z,1.00
2023-01-19T19:10:57.430Z,0.98
2023-01-19T19:13:24.359Z,1.00
2023-01-19T19:15:52.615Z,1.03
2023-01-19T19:18:21.052Z,0.91
2023-01-19T19:20:48.975Z,0.90
2023-01-19T19:23:15.936Z,0.86
2023-01-19T19:25:42.554Z,0.85
2023-01-19T19:28:09.295Z,0.91
2023-01-19T19:30:37.935Z,0.86
2023-01-19T19:33:05.419Z,0.80
2023-01-19T19:35:32.207Z,0.77
2023-01-19T19:38:01.664Z,0.79
2023-01-19T19:40:29.293Z,0.75
2023-01-19T19:42:58.738Z,0.74
2023-01-19T19:45:29.155Z,0.72
2023-01-19T19:47:57.547Z,0.76
2023-01-19T19:50:24.191Z,0.72
2023-01-19T19:52:50.758Z,0.69
2023-01-19T19:55:17.474Z,0.68
2023-01-19T19:57:44.215Z,0.64
2023-01-19T20:00:11.624Z,0.69
2023-01-19T20:02:38.686Z,0.71
2023-01-19T20:05:06.974Z,0.71
2023-01-19T20:07:33.942Z,0.73
2023-01-19T20:10:00.733Z,0.73
2023-01-19T20:12:27.691Z,0.78
2023-01-19T20:14:54.220Z,0.77
2023-01-19T20:17:20.987Z,0.74
2023-01-19T20:19:51.259Z,0.80
2023-01-19T20:22:18.042Z,0.86
2023-01-19T20:24:45.676Z,0.85
2023-01-19T20:27:12.626Z,0.85
2023-01-19T20:29:39.422Z,0.88
2023-01-19T20:32:06.106Z,0.91
2023-01-19T20:34:33.878Z,1.01
2023-01-19T20:37:01.776Z,1.19
2023-01-19T20:39:33.391Z,1.25
2023-01-19T20:42:00.799Z,1.34
2023-01-19T20:44:27.404Z,1.36
2023-01-19T20:46:55.821Z,1.37
2023-01-19T20:49:23.035Z,1.36
2023-01-19T20:51:52.097Z,1.35
2023-01-19T20:54:26.360Z,1.41
2023-01-19T20:56:53.249Z,1.42
2023-01-19T20:59:23.942Z,1.46
2023-01-19T21:01:50.678Z,1.48
2023-01-19T21:04:17.843Z,1.55
2023-01-19T21:06:44.810Z,1.54
2023-01-19T21:09:12.783Z,1.59
2023-01-19T21:11:39.769Z,1.60
2023-01-19T21:14:07.203Z,1.61
2023-01-19T21:16:35.086Z,1.58
2023-01-19T21:19:02.133Z,1.57
2023-01-19T21:21:31.225Z,1.59
2023-01-19T21:24:01.350Z,1.61
2023-01-19T21:26:31.512Z,1.64
2023-01-19T21:28:58.896Z,1.62
2023-01-19T21:31:27.799Z,1.63
2023-01-19T21:33:55.473Z,1.71
2023-01-19T21:36:22.974Z,1.73
2023-01-19T21:38:52.783Z,1.72
2023-01-19T21:41:22.520Z,1.70
2023-01-19T21:43:52.015Z,1.72
2023-01-19T21:46:22.321Z,1.71
2023-01-19T21:48:49.849Z,1.72
2023-01-19T21:51:16.862Z,1.71
2023-01-19T21:53:43.430Z,1.73
2023-01-19T21:56:11.195Z,1.77
2023-01-19T21:58:38.537Z,1.82
2023-01-19T22:01:11.151Z,1.86
2023-01-19T22:03:37.992Z,1.83
2023-01-19T22:06:09.127Z,1.86
2023-01-19T22:08:36.311Z,1.88
2023-01-19T22:11:10.588Z,1.90
2023-01-19T22:13:41.369Z,1.87
2023-01-19T22:16:11.188Z,1.85
2023-01-19T22:18:39.160Z,1.84
2023-01-19T22:21:10.080Z,1.90
2023-01-19T22:23:37.289Z,1.89
2023-01-19T22:26:04.336Z,1.85
2023-01-19T22:28:31.663Z,1.79
2023-01-19T22:31:08.398Z,1.78
2023-01-19T22:33:36.107Z,1.73
2023-01-19T22:36:20.381Z,1.70
2023-01-19T22:38:58.854Z,1.69
2023-01-19T22:41:25.423Z,1.72
2023-01-19T22:43:57.370Z,1.73
2023-01-19T22:46:26.714Z,1.78
2023-01-19T22:48:54.806Z,1.74
2023-01-19T22:51:23.235Z,1.77
2023-01-19T22:53:53.113Z,1.77
2023-01-19T22:56:23.444Z,1.75
2023-01-19T22:58:51.214Z,1.78
2023-01-19T23:01:21.209Z,1.77
2023-01-19T23:03:48.482Z,1.72
2023-01-19T23:06:18.289Z,1.69
2023-01-19T23:08:45.394Z,1.69
2023-01-19T23:11:22.407Z,1.67
2023-01-19T23:13:50.772Z,1.72
2023-01-19T23:16:17.624Z,1.73
2023-01-19T23:18:45.228Z,1.78
2023-01-19T23:21:18.338Z,1.81
2023-01-19T23:23:45.935Z,1.81
2023-01-19T23:26:13.797Z,1.83
2023-01-19T23:28:41.436Z,1.81
2023-01-19T23:31:23.350Z,1.81
2023-01-19T23:33:54.119Z,1.84
2023-01-19T23:36:22.531Z,1.76
2023-01-19T23:38:55.111Z,1.77
2023-01-19T23:41:22.716Z,1.74
2023-01-19T23:43:50.202Z,1.80
2023-01-19T23:46:18.970Z,1.79
2023-01-19T23:48:45.771Z,1.73
2023-01-19T23:51:19.057Z,1.72
2023-01-19T23:53:46.415Z,1.65
2023-01-19T23:56:23.909Z,1.65
2023-01-19T23:59:06.429Z,1.58
